Georgetown, SC

9:21 PM EDT on September 30, 2014 (GMT -0400)
Litchfield Beach | Change Station
CLOSE
Current Station
Personal Weather Station
Location: Pawleys Island, SC
Elevation: 10 ft
Nearby Weather Stations

Elev 10 ft 33.47 °N, 79.10 °W | Updated 8 seconds ago

Partly Cloudy
Partly Cloudy
76.0 °F
Feels Like 77 °F
N
0.0
Wind Variable Wind from SE
Gusts 0.0 mph

Today
High -- | Low -- °F
--% Chance of Precip.
Yesterday
High -- | Low -- °F
Precip. -- in
7:10 AM 7:02 PM
Waxing Crescent, 42% visible
Pressure 29.90 in
Visibility 10.0 miles
Clouds Mostly Cloudy 4800 ft
Heat Index 77 °F
Dew Point 69 °F
Humidity 78%
Rainfall 0.00 in
Snow Depth Not available.
UV 0 out of 12
Pollen 5.10 out of 12
Air Quality Not available.
Flu Activity Not available.
METAR KGGE 010115Z AUTO 00000KT 10SM BKN048 21/21 A2990 RMK AO2

More Conditions Fewer Conditions

Pressure 29.90 in
Visibility 10.0 miles
Clouds Mostly Cloudy 4800 ft
Heat Index 77 °F
Dew Point 69 °F
Humidity 78%
Rainfall 0.00 in
Snow Depth Not available.
UV 0 out of 12
Pollen 5.10 out of 12
Air Quality Not available.
Flu Activity Not available.
METAR KGGE 010115Z AUTO 00000KT 10SM BKN048 21/21 A2990 RMK AO2

More Conditions Fewer Conditions

10-Day Weather Forecast

Almanac

Astronomy

Sep. 30, 2014 Rise Set
Actual Time 7:10 AM EDT 7:02 PM EDT
Civil Twilight 6:46 AM EDT 7:27 PM EDT
Nautical Twilight 6:17 AM EDT 7:56 PM EDT
Astronomical Twilight 5:48 AM EDT 8:25 PM EDT
Moon 1:04 PM EDT (9/30) 11:44 PM EDT (9/30)
Length of Visible Light 12h 41m
Length of Day
11h 52m
Tomorrow will be 2m 3s shorter.
Waxing Crescent, 42% of the Moon is Illuminated
Today
Waxing Crescent
Oct 1
First Quarter
Oct 8
Full
Oct 15
Last Quarter
Oct 23
New

Today's Extremes

State Highs State Lows

Community

WunderPhotos

Upload Photos

1,757,815 photos uploaded!

Nearby

Snow Depth

Station Depth Elevation
No new snow has been reported.

Earthquake Activity

City Distance Mag. Time & Date
No recent earthquake activity has been reported nearby.
Minimum magnitude displayed is 2.5.

Coastal Water Temperatures

Place Temperature
Springmaid Pier, SC 75.9 °F

Nearby Weather Stations